Angela, Montana
Current Conditions -  °F | °C
As of 4:53 AM on Saturday 01 Nov 2014 (Local Time) from KMLS Reporting Station
Clear Clear  
Wind Chill: 33°   Ceiling: Unl
Heat Index: 37°   Visibility: 10mi
Dew Point: 30°   Wind: 5mph
Humidity: 76%   Direction: 130°SE
Pressure: 29.73"   Gusts: NA
Location:  46.73°N, 106.2°W
Report Text: KMLS 011053Z AUTO 13004KT 10SM CLR 03/M01 A2973 RMK AO2 SLP074 T00281011
Loading
Personal Weather Stations






























Interactive Weather Map
Tropical Storm Tracking
New forecast layout! Learn more

10-Day Weather Forecast

Advertisements
Track Severe Weather on mobile